sensor_id;sensor_type;location;lat;lon;timestamp;pressure;altitude;pressure_sealevel;temperature;humidity
20115;BME280;10218;42.874;25.320;2022-12-08T00:01:20;97085.44;;;5.06;100.00
20115;BME280;10218;42.874;25.320;2022-12-08T00:03:48;97085.03;;;5.11;100.00
20115;BME280;10218;42.874;25.320;2022-12-08T00:06:26;97088.91;;;5.26;100.00
20115;BME280;10218;42.874;25.320;2022-12-08T00:14:29;97104.25;;;5.23;100.00
20115;BME280;10218;42.874;25.320;2022-12-08T00:16:57;97102.97;;;5.46;100.00
20115;BME280;10218;42.874;25.320;2022-12-08T00:19:26;97097.03;;;5.81;100.00
20115;BME280;10218;42.874;25.320;2022-12-08T00:21:54;97106.34;;;6.04;100.00
20115;BME280;10218;42.874;25.320;2022-12-08T00:24:23;97106.53;;;5.83;100.00
20115;BME280;10218;42.874;25.320;2022-12-08T00:26:50;97118.16;;;5.53;100.00
20115;BME280;10218;42.874;25.320;2022-12-08T00:29:18;97117.75;;;6.14;100.00
20115;BME280;10218;42.874;25.320;2022-12-08T00:31:45;97125.94;;;5.55;100.00
20115;BME280;10218;42.874;25.320;2022-12-08T00:34:13;97123.41;;;5.82;100.00
20115;BME280;10218;42.874;25.320;2022-12-08T00:36:41;97128.41;;;5.95;100.00
20115;BME280;10218;42.874;25.320;2022-12-08T00:39:10;97122.44;;;5.74;100.00
20115;BME280;10218;42.874;25.320;2022-12-08T00:41:37;97129.25;;;5.76;100.00
20115;BME280;10218;42.874;25.320;2022-12-08T00:44:23;97111.87;;;6.11;100.00
20115;BME280;10218;42.874;25.320;2022-12-08T00:46:51;97101.22;;;6.20;100.00
20115;BME280;10218;42.874;25.320;2022-12-08T00:49:18;97104.06;;;6.19;100.00
20115;BME280;10218;42.874;25.320;2022-12-08T00:51:45;97106.72;;;5.63;100.00
20115;BME280;10218;42.874;25.320;2022-12-08T00:54:13;97124.00;;;5.67;100.00
20115;BME280;10218;42.874;25.320;2022-12-08T00:56:39;97121.28;;;5.86;100.00
20115;BME280;10218;42.874;25.320;2022-12-08T00:59:07;97125.41;;;5.61;100.00
20115;BME280;10218;42.874;25.320;2022-12-08T01:01:35;97125.94;;;5.65;100.00
20115;BME280;10218;42.874;25.320;2022-12-08T01:04:07;97128.13;;;5.98;100.00
20115;BME280;10218;42.874;25.320;2022-12-08T01:06:37;97125.22;;;6.28;100.00
20115;BME280;10218;42.874;25.320;2022-12-08T01:09:05;97124.06;;;5.28;100.00
20115;BME280;10218;42.874;25.320;2022-12-08T01:11:33;97119.00;;;5.35;100.00
20115;BME280;10218;42.874;25.320;2022-12-08T01:14:01;97131.28;;;5.45;100.00
20115;BME280;10218;42.874;25.320;2022-12-08T01:16:31;97133.06;;;5.74;100.00
20115;BME280;10218;42.874;25.320;2022-12-08T01:18:59;97119.87;;;6.01;100.00
20115;BME280;10218;42.874;25.320;2022-12-08T01:21:27;97124.84;;;5.57;100.00
20115;BME280;10218;42.874;25.320;2022-12-08T01:23:54;97132.34;;;5.72;100.00
20115;BME280;10218;42.874;25.320;2022-12-08T01:26:21;97122.25;;;5.85;100.00
20115;BME280;10218;42.874;25.320;2022-12-08T01:28:49;97114.44;;;6.03;100.00
20115;BME280;10218;42.874;25.320;2022-12-08T01:31:20;97124.06;;;5.84;100.00
20115;BME280;10218;42.874;25.320;2022-12-08T01:33:47;97131.66;;;5.89;100.00
20115;BME280;10218;42.874;25.320;2022-12-08T01:36:22;97132.66;;;5.69;100.00
20115;BME280;10218;42.874;25.320;2022-12-08T01:38:50;97135.37;;;5.96;100.00
20115;BME280;10218;42.874;25.320;2022-12-08T01:41:20;97139.25;;;6.11;100.00
20115;BME280;10218;42.874;25.320;2022-12-08T01:43:55;97125.59;;;6.06;100.00
20115;BME280;10218;42.874;25.320;2022-12-08T01:46:24;97135.09;;;6.09;100.00
20115;BME280;10218;42.874;25.320;2022-12-08T01:49:07;97134.00;;;5.92;100.00
20115;BME280;10218;42.874;25.320;2022-12-08T01:51:50;97137.94;;;5.88;100.00
20115;BME280;10218;42.874;25.320;2022-12-08T01:54:19;97133.66;;;6.14;100.00
20115;BME280;10218;42.874;25.320;2022-12-08T01:59:19;97125.34;;;5.80;100.00
20115;BME280;10218;42.874;25.320;2022-12-08T02:01:49;97110.53;;;5.22;100.00
20115;BME280;10218;42.874;25.320;2022-12-08T02:04:17;97119.69;;;5.46;100.00
20115;BME280;10218;42.874;25.320;2022-12-08T02:06:45;97115.94;;;5.58;100.00
20115;BME280;10218;42.874;25.320;2022-12-08T02:09:14;97113.72;;;5.35;100.00
20115;BME280;10218;42.874;25.320;2022-12-08T02:11:43;97101.47;;;5.14;100.00
20115;BME280;10218;42.874;25.320;2022-12-08T02:14:12;97110.78;;;5.09;100.00
20115;BME280;10218;42.874;25.320;2022-12-08T02:19:37;97099.22;;;4.81;100.00
20115;BME280;10218;42.874;25.320;2022-12-08T02:22:23;97097.13;;;4.94;100.00
20115;BME280;10218;42.874;25.320;2022-12-08T02:27:38;97098.25;;;5.30;100.00
20115;BME280;10218;42.874;25.320;2022-12-08T02:44:24;97110.94;;;5.36;100.00
20115;BME280;10218;42.874;25.320;2022-12-08T02:46:56;97108.78;;;5.59;100.00
20115;BME280;10218;42.874;25.320;2022-12-08T02:49:34;97098.44;;;5.75;100.00
20115;BME280;10218;42.874;25.320;2022-12-08T02:54:44;97095.84;;;5.56;100.00
20115;BME280;10218;42.874;25.320;2022-12-08T03:00:06;97074.28;;;5.22;100.00
20115;BME280;10218;42.874;25.320;2022-12-08T03:02:42;97103.09;;;5.44;100.00
20115;BME280;10218;42.874;25.320;2022-12-08T03:05:22;97105.03;;;5.62;100.00
20115;BME280;10218;42.874;25.320;2022-12-08T03:08:02;97105.84;;;5.72;100.00
20115;BME280;10218;42.874;25.320;2022-12-08T03:10:39;97105.34;;;5.20;100.00
20115;BME280;10218;42.874;25.320;2022-12-08T03:13:13;97108.41;;;5.44;100.00
20115;BME280;10218;42.874;25.320;2022-12-08T03:15:42;97093.53;;;5.05;100.00
20115;BME280;10218;42.874;25.320;2022-12-08T03:18:14;97112.87;;;4.77;100.00
20115;BME280;10218;42.874;25.320;2022-12-08T03:20:43;97113.31;;;4.82;100.00
20115;BME280;10218;42.874;25.320;2022-12-08T03:23:13;97109.28;;;5.16;100.00
20115;BME280;10218;42.874;25.320;2022-12-08T03:25:53;97098.25;;;5.30;100.00
20115;BME280;10218;42.874;25.320;2022-12-08T03:28:23;97102.78;;;5.67;100.00
20115;BME280;10218;42.874;25.320;2022-12-08T03:30:52;97101.28;;;5.45;100.00
20115;BME280;10218;42.874;25.320;2022-12-08T03:33:24;97099.84;;;5.89;100.00
20115;BME280;10218;42.874;25.320;2022-12-08T03:35:54;97101.66;;;5.69;100.00
20115;BME280;10218;42.874;25.320;2022-12-08T03:38:22;97101.12;;;5.56;100.00
20115;BME280;10218;42.874;25.320;2022-12-08T03:40:49;97111.03;;;5.44;100.00
20115;BME280;10218;42.874;25.320;2022-12-08T03:43:36;97111.47;;;5.40;100.00
20115;BME280;10218;42.874;25.320;2022-12-08T03:46:03;97116.78;;;5.30;100.00
20115;BME280;10218;42.874;25.320;2022-12-08T03:48:30;97118.16;;;5.34;100.00
20115;BME280;10218;42.874;25.320;2022-12-08T03:50:57;97123.34;;;5.07;100.00
20115;BME280;10218;42.874;25.320;2022-12-08T03:53:24;97098.13;;;5.32;100.00
20115;BME280;10218;42.874;25.320;2022-12-08T03:55:52;97111.69;;;5.75;100.00
20115;BME280;10218;42.874;25.320;2022-12-08T03:58:20;97115.38;;;5.36;100.00
20115;BME280;10218;42.874;25.320;2022-12-08T04:00:47;97115.78;;;5.50;100.00
20115;BME280;10218;42.874;25.320;2022-12-08T04:03:14;97112.06;;;4.95;100.00
20115;BME280;10218;42.874;25.320;2022-12-08T04:05:41;97111.63;;;5.00;100.00
20115;BME280;10218;42.874;25.320;2022-12-08T04:08:08;97119.56;;;5.00;100.00
20115;BME280;10218;42.874;25.320;2022-12-08T04:10:35;97118.03;;;4.88;100.00
20115;BME280;10218;42.874;25.320;2022-12-08T04:13:02;97127.22;;;4.93;100.00
20115;BME280;10218;42.874;25.320;2022-12-08T04:15:29;97130.16;;;5.00;100.00
20115;BME280;10218;42.874;25.320;2022-12-08T04:17:56;97140.75;;;5.00;100.00
20115;BME280;10218;42.874;25.320;2022-12-08T04:20:25;97127.94;;;4.95;100.00
20115;BME280;10218;42.874;25.320;2022-12-08T04:22:52;97145.78;;;5.41;100.00
20115;BME280;10218;42.874;25.320;2022-12-08T04:25:19;97137.25;;;4.90;100.00
20115;BME280;10218;42.874;25.320;2022-12-08T04:27:46;97147.50;;;4.54;100.00
20115;BME280;10218;42.874;25.320;2022-12-08T04:30:13;97149.94;;;4.96;100.00
20115;BME280;10218;42.874;25.320;2022-12-08T04:32:41;97132.00;;;4.40;100.00
20115;BME280;10218;42.874;25.320;2022-12-08T04:35:11;97164.13;;;4.76;100.00
20115;BME280;10218;42.874;25.320;2022-12-08T04:37:38;97161.38;;;4.87;100.00
20115;BME280;10218;42.874;25.320;2022-12-08T04:40:06;97168.81;;;4.62;100.00
20115;BME280;10218;42.874;25.320;2022-12-08T04:42:33;97162.31;;;4.26;100.00
20115;BME280;10218;42.874;25.320;2022-12-08T04:45:00;97163.41;;;4.24;100.00
20115;BME280;10218;42.874;25.320;2022-12-08T04:47:28;97165.44;;;4.41;100.00
20115;BME280;10218;42.874;25.320;2022-12-08T04:49:55;97166.56;;;4.48;100.00
20115;BME280;10218;42.874;25.320;2022-12-08T04:52:22;97164.00;;;4.37;100.00
20115;BME280;10218;42.874;25.320;2022-12-08T04:54:49;97174.50;;;4.48;100.00
20115;BME280;10218;42.874;25.320;2022-12-08T04:57:16;97174.91;;;4.53;100.00
20115;BME280;10218;42.874;25.320;2022-12-08T04:59:43;97171.81;;;4.08;100.00
20115;BME280;10218;42.874;25.320;2022-12-08T05:02:10;97181.75;;;4.16;100.00
20115;BME280;10218;42.874;25.320;2022-12-08T05:04:38;97181.19;;;4.22;100.00
20115;BME280;10218;42.874;25.320;2022-12-08T05:07:05;97172.31;;;4.23;100.00
20115;BME280;10218;42.874;25.320;2022-12-08T05:09:33;97173.81;;;4.46;100.00
20115;BME280;10218;42.874;25.320;2022-12-08T05:12:00;97170.50;;;4.63;100.00
20115;BME280;10218;42.874;25.320;2022-12-08T05:14:27;97172.75;;;4.78;100.00
20115;BME280;10218;42.874;25.320;2022-12-08T05:16:54;97177.38;;;4.36;100.00
20115;BME280;10218;42.874;25.320;2022-12-08T05:19:21;97183.53;;;4.46;100.00
20115;BME280;10218;42.874;25.320;2022-12-08T05:21:48;97182.31;;;4.19;100.00
20115;BME280;10218;42.874;25.320;2022-12-08T05:24:15;97177.66;;;3.81;100.00
20115;BME280;10218;42.874;25.320;2022-12-08T05:26:42;97179.84;;;4.67;100.00
20115;BME280;10218;42.874;25.320;2022-12-08T05:29:09;97184.34;;;4.37;100.00
20115;BME280;10218;42.874;25.320;2022-12-08T05:31:36;97172.44;;;3.91;100.00
20115;BME280;10218;42.874;25.320;2022-12-08T05:34:03;97178.63;;;3.80;100.00
20115;BME280;10218;42.874;25.320;2022-12-08T05:36:30;97181.03;;;4.44;100.00
20115;BME280;10218;42.874;25.320;2022-12-08T05:38:57;97182.16;;;4.51;100.00
20115;BME280;10218;42.874;25.320;2022-12-08T05:41:25;97174.53;;;4.67;100.00
20115;BME280;10218;42.874;25.320;2022-12-08T05:43:52;97177.66;;;4.42;100.00
20115;BME280;10218;42.874;25.320;2022-12-08T05:46:19;97183.00;;;4.52;100.00
20115;BME280;10218;42.874;25.320;2022-12-08T05:48:46;97173.19;;;4.33;100.00
20115;BME280;10218;42.874;25.320;2022-12-08T05:51:18;97156.78;;;4.39;100.00
20115;BME280;10218;42.874;25.320;2022-12-08T05:53:47;97170.94;;;4.28;100.00
20115;BME280;10218;42.874;25.320;2022-12-08T05:56:15;97169.97;;;3.99;100.00
20115;BME280;10218;42.874;25.320;2022-12-08T05:58:42;97179.78;;;4.18;100.00
20115;BME280;10218;42.874;25.320;2022-12-08T06:01:29;97162.94;;;4.49;100.00
20115;BME280;10218;42.874;25.320;2022-12-08T06:03:58;97175.19;;;4.41;100.00
20115;BME280;10218;42.874;25.320;2022-12-08T06:06:26;97170.78;;;4.60;100.00
20115;BME280;10218;42.874;25.320;2022-12-08T06:08:53;97170.34;;;4.15;100.00
20115;BME280;10218;42.874;25.320;2022-12-08T06:11:28;97151.22;;;3.81;100.00
20115;BME280;10218;42.874;25.320;2022-12-08T06:13:57;97166.31;;;4.21;100.00
20115;BME280;10218;42.874;25.320;2022-12-08T06:16:25;97168.84;;;4.02;100.00
20115;BME280;10218;42.874;25.320;2022-12-08T06:18:52;97171.84;;;4.18;100.00
20115;BME280;10218;42.874;25.320;2022-12-08T06:21:20;97158.41;;;3.70;100.00
20115;BME280;10218;42.874;25.320;2022-12-08T06:23:50;97169.38;;;4.56;100.00
20115;BME280;10218;42.874;25.320;2022-12-08T06:26:18;97172.19;;;4.64;100.00
20115;BME280;10218;42.874;25.320;2022-12-08T06:28:45;97178.22;;;4.36;100.00
20115;BME280;10218;42.874;25.320;2022-12-08T06:31:16;97166.37;;;4.80;100.00
20115;BME280;10218;42.874;25.320;2022-12-08T06:33:44;97181.06;;;4.54;100.00
20115;BME280;10218;42.874;25.320;2022-12-08T06:36:13;97186.75;;;4.49;100.00
20115;BME280;10218;42.874;25.320;2022-12-08T06:38:41;97183.63;;;4.74;100.00
20115;BME280;10218;42.874;25.320;2022-12-08T06:41:09;97182.88;;;5.12;100.00
20115;BME280;10218;42.874;25.320;2022-12-08T06:43:36;97189.00;;;5.32;100.00
20115;BME280;10218;42.874;25.320;2022-12-08T06:46:06;97174.69;;;6.10;100.00
20115;BME280;10218;42.874;25.320;2022-12-08T06:48:34;97165.28;;;7.07;100.00
20115;BME280;10218;42.874;25.320;2022-12-08T06:51:06;97157.06;;;8.41;100.00
20115;BME280;10218;42.874;25.320;2022-12-08T06:53:33;97165.34;;;9.30;100.00
20115;BME280;10218;42.874;25.320;2022-12-08T06:56:01;97166.00;;;10.37;100.00
20115;BME280;10218;42.874;25.320;2022-12-08T06:58:28;97157.72;;;10.00;100.00
20115;BME280;10218;42.874;25.320;2022-12-08T07:00:55;97167.75;;;11.08;100.00
20115;BME280;10218;42.874;25.320;2022-12-08T07:03:22;97167.34;;;10.88;100.00
20115;BME280;10218;42.874;25.320;2022-12-08T07:05:54;97138.59;;;12.56;73.38
20115;BME280;10218;42.874;25.320;2022-12-08T07:08:23;97164.78;;;12.02;78.09
20115;BME280;10218;42.874;25.320;2022-12-08T07:10:50;97161.38;;;11.40;81.22
20115;BME280;10218;42.874;25.320;2022-12-08T07:13:17;97170.44;;;12.07;87.86
20115;BME280;10218;42.874;25.320;2022-12-08T07:15:44;97184.16;;;12.41;75.17
20115;BME280;10218;42.874;25.320;2022-12-08T07:18:11;97179.88;;;13.71;66.69
20115;BME280;10218;42.874;25.320;2022-12-08T07:20:38;97182.13;;;13.02;67.76
20115;BME280;10218;42.874;25.320;2022-12-08T07:23:06;97181.28;;;12.28;69.81
20115;BME280;10218;42.874;25.320;2022-12-08T07:25:33;97180.84;;;11.56;74.59
20115;BME280;10218;42.874;25.320;2022-12-08T07:28:00;97185.66;;;12.44;69.06
20115;BME280;10218;42.874;25.320;2022-12-08T07:30:28;97170.56;;;13.52;62.13
20115;BME280;10218;42.874;25.320;2022-12-08T07:32:55;97175.53;;;11.48;72.86
20115;BME280;10218;42.874;25.320;2022-12-08T07:35:22;97171.25;;;14.80;60.57
20115;BME280;10218;42.874;25.320;2022-12-08T07:37:49;97176.03;;;13.80;65.01
20115;BME280;10218;42.874;25.320;2022-12-08T07:40:16;97168.69;;;13.32;70.37
20115;BME280;10218;42.874;25.320;2022-12-08T07:42:44;97177.62;;;12.59;78.66
20115;BME280;10218;42.874;25.320;2022-12-08T07:45:11;97172.28;;;15.27;59.60
20115;BME280;10218;42.874;25.320;2022-12-08T07:47:38;97180.56;;;11.97;82.40
20115;BME280;10218;42.874;25.320;2022-12-08T07:50:06;97168.22;;;12.11;85.75
20115;BME280;10218;42.874;25.320;2022-12-08T07:52:34;97172.87;;;13.55;75.73
20115;BME280;10218;42.874;25.320;2022-12-08T07:55:01;97173.03;;;14.67;64.41
20115;BME280;10218;42.874;25.320;2022-12-08T07:57:28;97174.19;;;12.50;70.46
20115;BME280;10218;42.874;25.320;2022-12-08T07:59:55;97175.78;;;13.96;64.01
20115;BME280;10218;42.874;25.320;2022-12-08T08:02:22;97176.50;;;13.12;80.00
20115;BME280;10218;42.874;25.320;2022-12-08T08:04:51;97173.63;;;12.99;79.75
20115;BME280;10218;42.874;25.320;2022-12-08T08:07:18;97165.69;;;14.88;59.34
20115;BME280;10218;42.874;25.320;2022-12-08T08:09:45;97157.75;;;15.15;59.82
20115;BME280;10218;42.874;25.320;2022-12-08T08:12:12;97157.19;;;16.19;54.31
20115;BME280;10218;42.874;25.320;2022-12-08T08:14:55;97150.94;;;16.58;53.37
20115;BME280;10218;42.874;25.320;2022-12-08T08:17:22;97153.72;;;18.73;48.74
20115;BME280;10218;42.874;25.320;2022-12-08T08:19:49;97144.28;;;16.74;52.90
20115;BME280;10218;42.874;25.320;2022-12-08T08:22:16;97142.09;;;15.31;56.62
20115;BME280;10218;42.874;25.320;2022-12-08T08:24:44;97140.84;;;15.27;61.81
20115;BME280;10218;42.874;25.320;2022-12-08T08:27:11;97145.13;;;16.75;58.42
20115;BME280;10218;42.874;25.320;2022-12-08T08:29:39;97141.19;;;15.72;56.86
20115;BME280;10218;42.874;25.320;2022-12-08T08:32:06;97139.97;;;16.60;54.75
20115;BME280;10218;42.874;25.320;2022-12-08T08:34:33;97135.78;;;16.57;52.62
20115;BME280;10218;42.874;25.320;2022-12-08T08:37:00;97134.78;;;16.06;55.80
20115;BME280;10218;42.874;25.320;2022-12-08T08:39:27;97133.47;;;18.08;50.59
20115;BME280;10218;42.874;25.320;2022-12-08T08:41:56;97131.50;;;18.64;49.84
20115;BME280;10218;42.874;25.320;2022-12-08T08:44:23;97123.78;;;20.24;46.22
20115;BME280;10218;42.874;25.320;2022-12-08T08:46:50;97127.25;;;20.54;45.45
20115;BME280;10218;42.874;25.320;2022-12-08T08:49:17;97124.53;;;18.75;47.10
20115;BME280;10218;42.874;25.320;2022-12-08T08:51:44;97119.56;;;17.35;49.53
20115;BME280;10218;42.874;25.320;2022-12-08T08:54:12;97113.59;;;16.68;52.84
20115;BME280;10218;42.874;25.320;2022-12-08T08:56:39;97122.34;;;16.05;57.84
20115;BME280;10218;42.874;25.320;2022-12-08T08:59:06;97120.94;;;15.22;61.54
20115;BME280;10218;42.874;25.320;2022-12-08T09:01:33;97112.16;;;19.52;48.40
20115;BME280;10218;42.874;25.320;2022-12-08T09:04:00;97106.81;;;18.79;49.65
20115;BME280;10218;42.874;25.320;2022-12-08T09:06:27;97104.00;;;20.70;46.11
20115;BME280;10218;42.874;25.320;2022-12-08T09:08:55;97096.44;;;19.72;46.86
20115;BME280;10218;42.874;25.320;2022-12-08T09:11:22;97101.69;;;18.89;48.60
20115;BME280;10218;42.874;25.320;2022-12-08T09:13:50;97092.19;;;18.80;50.56
20115;BME280;10218;42.874;25.320;2022-12-08T09:16:18;97090.66;;;18.48;49.28
20115;BME280;10218;42.874;25.320;2022-12-08T09:18:46;97091.59;;;18.60;51.13
20115;BME280;10218;42.874;25.320;2022-12-08T09:21:17;97084.00;;;18.25;50.96
20115;BME280;10218;42.874;25.320;2022-12-08T09:23:49;97076.13;;;19.03;49.87
20115;BME280;10218;42.874;25.320;2022-12-08T09:26:16;97070.22;;;18.33;51.35
20115;BME280;10218;42.874;25.320;2022-12-08T09:28:43;97070.00;;;20.09;46.69
20115;BME280;10218;42.874;25.320;2022-12-08T09:31:13;97069.22;;;19.67;48.83
20115;BME280;10218;42.874;25.320;2022-12-08T09:33:41;97061.63;;;20.11;46.20
20115;BME280;10218;42.874;25.320;2022-12-08T09:36:09;97057.59;;;20.01;46.94
20115;BME280;10218;42.874;25.320;2022-12-08T09:38:37;97051.00;;;16.40;52.95
20115;BME280;10218;42.874;25.320;2022-12-08T09:41:36;97041.84;;;20.57;46.64
20115;BME280;10218;42.874;25.320;2022-12-08T09:47:00;97037.94;;;18.93;49.30
20115;BME280;10218;42.874;25.320;2022-12-08T09:49:37;97039.59;;;19.24;47.43
20115;BME280;10218;42.874;25.320;2022-12-08T09:52:17;97043.00;;;19.01;48.57
20115;BME280;10218;42.874;25.320;2022-12-08T09:54:46;97039.81;;;21.89;43.48
20115;BME280;10218;42.874;25.320;2022-12-08T09:57:16;97044.19;;;20.30;45.70
20115;BME280;10218;42.874;25.320;2022-12-08T09:59:50;97036.47;;;21.13;43.48
20115;BME280;10218;42.874;25.320;2022-12-08T10:02:24;97038.66;;;20.48;46.92
20115;BME280;10218;42.874;25.320;2022-12-08T10:04:54;97020.41;;;21.23;44.32
20115;BME280;10218;42.874;25.320;2022-12-08T10:07:45;97014.13;;;20.95;44.78
20115;BME280;10218;42.874;25.320;2022-12-08T10:10:41;97018.44;;;21.81;42.89
20115;BME280;10218;42.874;25.320;2022-12-08T10:13:18;97019.19;;;20.51;46.04
20115;BME280;10218;42.874;25.320;2022-12-08T10:18:28;97016.81;;;20.20;46.45
20115;BME280;10218;42.874;25.320;2022-12-08T10:21:04;97019.16;;;19.40;47.84
20115;BME280;10218;42.874;25.320;2022-12-08T10:23:38;97020.44;;;19.79;46.78
20115;BME280;10218;42.874;25.320;2022-12-08T10:26:12;97019.91;;;19.47;47.01
20115;BME280;10218;42.874;25.320;2022-12-08T10:28:41;97018.66;;;19.01;48.79
20115;BME280;10218;42.874;25.320;2022-12-08T10:31:22;97011.00;;;19.70;46.78
20115;BME280;10218;42.874;25.320;2022-12-08T10:34:00;97017.50;;;15.83;55.41
20115;BME280;10218;42.874;25.320;2022-12-08T10:42:22;96998.78;;;16.15;68.50
20115;BME280;10218;42.874;25.320;2022-12-08T10:47:38;97004.66;;;14.25;76.89
20115;BME280;10218;42.874;25.320;2022-12-08T10:50:29;96998.25;;;14.26;83.12
20115;BME280;10218;42.874;25.320;2022-12-08T10:55:44;96999.41;;;16.17;59.24
20115;BME280;10218;42.874;25.320;2022-12-08T11:01:19;97003.81;;;18.56;53.66
20115;BME280;10218;42.874;25.320;2022-12-08T11:03:49;97005.56;;;16.31;63.26
20115;BME280;10218;42.874;25.320;2022-12-08T11:06:24;97017.84;;;15.21;70.33
20115;BME280;10218;42.874;25.320;2022-12-08T11:08:58;97010.88;;;11.23;100.00
20115;BME280;10218;42.874;25.320;2022-12-08T11:11:56;97003.84;;;12.98;100.00
20115;BME280;10218;42.874;25.320;2022-12-08T11:14:27;96998.87;;;12.09;100.00
20115;BME280;10218;42.874;25.320;2022-12-08T11:17:01;96995.63;;;13.42;100.00
20115;BME280;10218;42.874;25.320;2022-12-08T11:19:36;96987.91;;;12.39;100.00
20115;BME280;10218;42.874;25.320;2022-12-08T11:22:26;96995.16;;;12.39;100.00
20115;BME280;10218;42.874;25.320;2022-12-08T11:27:34;97005.56;;;10.78;100.00
20115;BME280;10218;42.874;25.320;2022-12-08T11:30:34;97011.94;;;11.22;100.00
20115;BME280;10218;42.874;25.320;2022-12-08T11:33:16;97006.59;;;10.46;100.00
20115;BME280;10218;42.874;25.320;2022-12-08T11:35:46;97001.12;;;10.62;100.00
20115;BME280;10218;42.874;25.320;2022-12-08T11:38:18;97002.09;;;10.46;100.00
20115;BME280;10218;42.874;25.320;2022-12-08T11:40:53;97004.56;;;10.01;100.00
20115;BME280;10218;42.874;25.320;2022-12-08T11:46:04;97005.47;;;9.85;100.00
20115;BME280;10218;42.874;25.320;2022-12-08T11:48:40;97003.53;;;9.63;100.00
20115;BME280;10218;42.874;25.320;2022-12-08T11:56:44;97013.41;;;9.14;100.00
20115;BME280;10218;42.874;25.320;2022-12-08T11:59:28;97008.38;;;9.35;100.00
20115;BME280;10218;42.874;25.320;2022-12-08T12:02:02;96997.37;;;8.15;100.00
20115;BME280;10218;42.874;25.320;2022-12-08T12:13:32;96995.75;;;8.72;100.00
20115;BME280;10218;42.874;25.320;2022-12-08T12:18:59;96995.94;;;9.91;100.00
20115;BME280;10218;42.874;25.320;2022-12-08T12:21:47;97011.72;;;9.05;100.00
20115;BME280;10218;42.874;25.320;2022-12-08T12:24:25;97014.09;;;9.08;100.00
20115;BME280;10218;42.874;25.320;2022-12-08T12:27:05;97022.50;;;8.54;100.00
20115;BME280;10218;42.874;25.320;2022-12-08T12:29:36;97025.25;;;9.03;100.00
20115;BME280;10218;42.874;25.320;2022-12-08T12:32:09;97034.06;;;8.87;100.00
20115;BME280;10218;42.874;25.320;2022-12-08T12:34:45;97030.56;;;9.35;100.00
20115;BME280;10218;42.874;25.320;2022-12-08T12:37:24;97027.56;;;9.06;100.00
20115;BME280;10218;42.874;25.320;2022-12-08T13:03:44;97028.34;;;8.66;100.00
20115;BME280;10218;42.874;25.320;2022-12-08T13:06:22;97038.81;;;8.18;100.00
20115;BME280;10218;42.874;25.320;2022-12-08T13:08:59;97034.25;;;8.36;100.00
20115;BME280;10218;42.874;25.320;2022-12-08T13:11:26;97029.28;;;8.41;100.00
20115;BME280;10218;42.874;25.320;2022-12-08T13:13:58;97029.41;;;9.14;100.00
20115;BME280;10218;42.874;25.320;2022-12-08T13:16:29;97032.97;;;8.56;100.00
20115;BME280;10218;42.874;25.320;2022-12-08T13:18:58;97017.19;;;8.71;100.00
20115;BME280;10218;42.874;25.320;2022-12-08T13:21:35;97011.38;;;8.75;100.00
20115;BME280;10218;42.874;25.320;2022-12-08T13:24:28;97002.69;;;8.57;100.00
20115;BME280;10218;42.874;25.320;2022-12-08T13:29:25;97016.50;;;8.69;100.00
20115;BME280;10218;42.874;25.320;2022-12-08T13:31:57;97011.38;;;8.75;100.00
20115;BME280;10218;42.874;25.320;2022-12-08T13:34:42;97009.72;;;8.74;100.00
20115;BME280;10218;42.874;25.320;2022-12-08T13:42:14;97019.06;;;8.86;100.00
20115;BME280;10218;42.874;25.320;2022-12-08T13:45:00;97017.69;;;8.74;100.00
20115;BME280;10218;42.874;25.320;2022-12-08T13:47:53;97012.38;;;8.58;100.00
20115;BME280;10218;42.874;25.320;2022-12-08T13:50:42;97024.41;;;9.02;100.00
20115;BME280;10218;42.874;25.320;2022-12-08T13:53:35;97017.06;;;8.88;100.00
20115;BME280;10218;42.874;25.320;2022-12-08T13:56:26;97009.12;;;8.38;100.00
20115;BME280;10218;42.874;25.320;2022-12-08T14:01:48;97015.03;;;8.58;100.00
20115;BME280;10218;42.874;25.320;2022-12-08T14:04:18;97000.84;;;8.49;100.00
20115;BME280;10218;42.874;25.320;2022-12-08T14:07:08;97006.22;;;8.66;100.00
20115;BME280;10218;42.874;25.320;2022-12-08T14:09:37;96999.75;;;8.68;100.00
20115;BME280;10218;42.874;25.320;2022-12-08T14:12:23;97010.44;;;8.34;100.00
20115;BME280;10218;42.874;25.320;2022-12-08T14:14:57;97015.19;;;8.56;100.00
20115;BME280;10218;42.874;25.320;2022-12-08T14:17:29;97007.72;;;8.76;100.00
20115;BME280;10218;42.874;25.320;2022-12-08T14:20:03;96997.69;;;8.46;100.00
20115;BME280;10218;42.874;25.320;2022-12-08T14:22:35;96996.84;;;8.37;100.00
20115;BME280;10218;42.874;25.320;2022-12-08T14:25:05;96996.00;;;8.45;100.00
20115;BME280;10218;42.874;25.320;2022-12-08T14:27:36;96992.34;;;8.46;100.00
20115;BME280;10218;42.874;25.320;2022-12-08T14:30:18;96981.44;;;8.73;100.00
20115;BME280;10218;42.874;25.320;2022-12-08T14:37:57;96980.06;;;8.61;100.00
20115;BME280;10218;42.874;25.320;2022-12-08T14:40:46;96989.06;;;8.60;100.00
20115;BME280;10218;42.874;25.320;2022-12-08T14:43:19;96994.81;;;8.31;100.00
20115;BME280;10218;42.874;25.320;2022-12-08T14:45:48;96988.84;;;8.45;100.00
20115;BME280;10218;42.874;25.320;2022-12-08T14:58:44;96983.69;;;8.36;100.00
20115;BME280;10218;42.874;25.320;2022-12-08T15:01:16;96988.19;;;8.43;100.00
20115;BME280;10218;42.874;25.320;2022-12-08T15:03:47;96983.16;;;7.90;100.00
20115;BME280;10218;42.874;25.320;2022-12-08T15:06:19;96989.25;;;7.83;100.00
20115;BME280;10218;42.874;25.320;2022-12-08T15:08:55;96972.53;;;7.98;100.00
20115;BME280;10218;42.874;25.320;2022-12-08T15:11:33;96982.94;;;8.18;100.00
20115;BME280;10218;42.874;25.320;2022-12-08T15:14:01;96986.41;;;8.10;100.00
20115;BME280;10218;42.874;25.320;2022-12-08T15:21:36;96985.28;;;8.21;100.00